createdAt,value
2022-08-24T00:00:49.977Z,66.23
2022-08-24T00:01:49.991Z,68.80
2022-08-24T00:02:50.097Z,68.80
2022-08-24T00:03:54.214Z,69.61
2022-08-24T00:04:50.935Z,69.45
2022-08-24T00:05:49.923Z,70.09
2022-08-24T00:06:49.919Z,70.90
2022-08-24T00:07:49.905Z,69.77
2022-08-24T00:08:49.933Z,67.84
2022-08-24T00:09:50.798Z,70.25
2022-08-24T00:10:49.876Z,68.96
2022-08-24T00:11:49.868Z,65.10
2022-08-24T00:12:49.860Z,68.00
2022-08-24T00:13:49.849Z,68.48
2022-08-24T00:14:49.855Z,74.60
2022-08-24T00:15:49.851Z,72.51
2022-08-24T00:16:49.926Z,70.42
2022-08-24T00:17:49.806Z,72.19
2022-08-24T00:18:50.795Z,72.67
2022-08-24T00:19:49.803Z,65.90
2022-08-24T00:20:49.798Z,70.58
2022-08-24T00:21:49.767Z,66.39
2022-08-24T00:22:49.758Z,68.16
2022-08-24T00:23:49.765Z,71.70
2022-08-24T00:24:49.757Z,65.10
2022-08-24T00:25:49.736Z,65.10
2022-08-24T00:26:49.724Z,68.64
2022-08-24T00:27:49.708Z,70.42
2022-08-24T00:28:49.699Z,68.00
2022-08-24T00:29:49.730Z,72.35
2022-08-24T00:30:49.683Z,69.93
2022-08-24T00:31:49.730Z,72.83
2022-08-24T00:32:49.664Z,71.38
2022-08-24T00:33:49.651Z,71.87
2022-08-24T00:34:58.287Z,70.25
2022-08-24T00:35:50.637Z,63.65
2022-08-24T00:36:49.623Z,68.64
2022-08-24T00:37:49.632Z,70.09
2022-08-24T00:38:49.602Z,69.13
2022-08-24T00:39:49.669Z,68.32
2022-08-24T00:40:49.603Z,68.96
2022-08-24T00:41:49.578Z,72.83
2022-08-24T00:42:49.567Z,69.77
2022-08-24T00:43:49.556Z,66.87
2022-08-24T00:44:49.551Z,69.61
2022-08-24T00:45:49.616Z,71.70
2022-08-24T00:46:49.538Z,70.58
2022-08-24T00:47:49.526Z,69.13
2022-08-24T00:48:49.516Z,72.19
2022-08-24T00:49:49.505Z,70.74
2022-08-24T00:50:49.513Z,71.38
2022-08-24T00:51:49.518Z,67.84
2022-08-24T00:52:49.477Z,70.25
2022-08-24T00:53:49.464Z,72.19
2022-08-24T00:54:49.450Z,67.03
2022-08-24T00:55:49.459Z,72.35
2022-08-24T00:56:49.435Z,70.09
2022-08-24T00:57:49.422Z,68.96
2022-08-24T00:58:56.831Z,71.22
2022-08-24T00:59:50.405Z,69.13
2022-08-24T01:00:49.457Z,68.48
2022-08-24T01:01:49.399Z,70.42
2022-08-24T01:02:50.371Z,68.00
2022-08-24T01:03:51.463Z,69.13
2022-08-24T01:04:50.353Z,66.39
2022-08-24T01:05:49.376Z,72.83
2022-08-24T01:06:49.339Z,73.15
2022-08-24T01:07:49.334Z,72.83
2022-08-24T01:08:54.133Z,70.58
2022-08-24T01:09:50.337Z,69.77
2022-08-24T01:10:49.310Z,70.58
2022-08-24T01:11:49.287Z,68.96
2022-08-24T01:12:56.053Z,71.54
2022-08-24T01:13:50.266Z,70.90
2022-08-24T01:14:49.259Z,71.22
2022-08-24T01:15:49.282Z,71.54
2022-08-24T01:16:49.252Z,70.42
2022-08-24T01:17:49.233Z,69.93
2022-08-24T01:18:49.225Z,71.70
2022-08-24T01:19:49.213Z,68.96
2022-08-24T01:20:49.223Z,66.06
2022-08-24T01:21:49.192Z,69.13
2022-08-24T01:22:49.194Z,73.96
2022-08-24T01:23:49.219Z,73.96
2022-08-24T01:24:50.165Z,75.25
2022-08-24T01:25:49.194Z,73.64
2022-08-24T01:26:49.140Z,70.09
2022-08-24T01:27:49.162Z,71.06
2022-08-24T01:28:49.125Z,68.48
2022-08-24T01:29:49.128Z,70.74
2022-08-24T01:30:49.145Z,72.67
2022-08-24T01:31:49.166Z,72.35
2022-08-24T01:32:49.087Z,70.58
2022-08-24T01:33:49.074Z,72.67
2022-08-24T01:34:49.074Z,69.13
2022-08-24T01:35:49.059Z,71.06
2022-08-24T01:36:49.073Z,70.25
2022-08-24T01:37:49.039Z,71.38
2022-08-24T01:38:49.045Z,73.32
2022-08-24T01:39:49.060Z,69.61
2022-08-24T01:40:49.009Z,70.58
2022-08-24T01:41:49.019Z,69.93
2022-08-24T01:42:49.004Z,71.70
2022-08-24T01:43:48.981Z,69.77
2022-08-24T01:44:48.970Z,71.22
2022-08-24T01:45:48.963Z,73.32
2022-08-24T01:46:49.091Z,72.19
2022-08-24T01:47:48.946Z,73.96
2022-08-24T01:48:48.951Z,71.06
2022-08-24T01:49:48.924Z,70.58
2022-08-24T01:50:48.914Z,74.60
2022-08-24T01:51:48.936Z,74.77
2022-08-24T01:53:04.879Z,69.13
2022-08-24T01:53:50.913Z,67.84
2022-08-24T01:54:49.506Z,70.74
2022-08-24T01:55:48.868Z,68.00
2022-08-24T01:56:48.863Z,70.42
2022-08-24T01:57:48.866Z,70.09
2022-08-24T01:58:48.835Z,68.96
2022-08-24T01:59:48.828Z,68.96
2022-08-24T02:00:48.819Z,72.67
2022-08-24T02:01:48.868Z,72.67
2022-08-24T02:02:48.871Z,69.93
2022-08-24T02:03:51.815Z,71.38
2022-08-24T02:04:48.776Z,69.93
2022-08-24T02:06:20.666Z,71.87
2022-08-24T02:06:48.761Z,71.06
2022-08-24T02:07:48.797Z,71.70
2022-08-24T02:08:48.749Z,70.58
2022-08-24T02:09:48.732Z,71.87
2022-08-24T02:10:54.875Z,67.19
2022-08-24T02:11:49.716Z,71.70
2022-08-24T02:12:48.740Z,67.84
2022-08-24T02:13:48.701Z,67.51
2022-08-24T02:14:48.691Z,71.22
2022-08-24T02:15:48.736Z,73.15
2022-08-24T02:16:48.669Z,71.38
2022-08-24T02:17:48.661Z,69.93
2022-08-24T02:18:48.666Z,72.35
2022-08-24T02:19:48.641Z,71.38
2022-08-24T02:20:48.634Z,73.96
2022-08-24T02:21:48.619Z,72.35
2022-08-24T02:22:48.611Z,69.77
2022-08-24T02:23:48.620Z,69.45
2022-08-24T02:24:48.601Z,73.64
2022-08-24T02:25:48.581Z,69.93
2022-08-24T02:26:48.576Z,72.19
2022-08-24T02:27:48.567Z,72.99
2022-08-24T02:28:48.572Z,72.83
2022-08-24T02:29:48.551Z,73.15
2022-08-24T02:30:48.563Z,74.28
2022-08-24T02:31:48.530Z,70.58
2022-08-24T02:32:48.513Z,73.64
2022-08-24T02:33:48.539Z,73.96
2022-08-24T02:34:48.495Z,72.03
2022-08-24T02:35:49.490Z,73.96
2022-08-24T02:36:48.485Z,73.15
2022-08-24T02:37:48.474Z,72.35
2022-08-24T02:38:48.516Z,71.70
2022-08-24T02:39:48.528Z,73.96
2022-08-24T02:40:48.443Z,73.48
2022-08-24T02:41:48.432Z,72.83
2022-08-24T02:42:48.423Z,72.99
2022-08-24T02:43:48.413Z,72.35
2022-08-24T02:44:49.485Z,72.83
2022-08-24T02:45:50.503Z,73.64
2022-08-24T02:46:49.414Z,70.58
2022-08-24T02:47:48.368Z,73.64
2022-08-24T02:48:56.534Z,70.25
2022-08-24T02:49:49.369Z,68.32
2022-08-24T02:50:48.345Z,72.19
2022-08-24T02:51:48.335Z,71.70
2022-08-24T02:52:48.325Z,73.15
2022-08-24T02:53:48.329Z,69.61
2022-08-24T02:54:48.338Z,73.64
2022-08-24T02:55:48.305Z,72.19
2022-08-24T02:56:48.297Z,71.38
2022-08-24T02:57:48.280Z,69.93
2022-08-24T02:58:48.264Z,72.03
2022-08-24T02:59:48.298Z,71.87
2022-08-24T03:00:48.249Z,70.74
2022-08-24T03:01:49.856Z,71.06
2022-08-24T03:02:48.255Z,69.77
2022-08-24T03:03:48.224Z,75.09
2022-08-24T03:04:49.438Z,73.96
2022-08-24T03:05:48.215Z,71.22
2022-08-24T03:06:48.200Z,72.51
2022-08-24T03:07:48.184Z,73.96
2022-08-24T03:08:49.327Z,70.09
2022-08-24T03:09:49.158Z,69.77
2022-08-24T03:10:48.164Z,72.03
2022-08-24T03:11:48.143Z,69.45
2022-08-24T03:12:48.132Z,69.45
2022-08-24T03:13:48.122Z,70.90
2022-08-24T03:14:48.109Z,76.22
2022-08-24T03:15:48.163Z,74.28
2022-08-24T03:16:48.088Z,77.02
2022-08-24T03:17:48.075Z,73.32
2022-08-24T03:18:49.066Z,73.48
2022-08-24T03:19:48.066Z,73.96
2022-08-24T03:20:48.082Z,73.64
2022-08-24T03:21:48.044Z,72.35
2022-08-24T03:22:48.029Z,72.19
2022-08-24T03:23:48.023Z,71.87
2022-08-24T03:24:48.010Z,74.28
2022-08-24T03:25:48.032Z,72.03
2022-08-24T03:26:47.995Z,71.38
2022-08-24T03:27:47.986Z,72.99
2022-08-24T03:28:49.577Z,72.67
2022-08-24T03:29:47.961Z,71.54
2022-08-24T03:30:48.324Z,74.60
2022-08-24T03:31:47.963Z,73.15
2022-08-24T03:32:47.932Z,72.67
2022-08-24T03:33:47.926Z,71.70
2022-08-24T03:34:47.917Z,72.83
2022-08-24T03:35:47.930Z,74.93
2022-08-24T03:36:47.913Z,73.48
2022-08-24T03:37:47.889Z,74.28
2022-08-24T03:38:47.880Z,74.28
2022-08-24T03:39:47.898Z,75.57
2022-08-24T03:40:47.862Z,74.28
2022-08-24T03:41:47.881Z,74.28
2022-08-24T03:42:47.841Z,73.48
2022-08-24T03:43:47.837Z,72.99
2022-08-24T03:44:47.820Z,71.38
2022-08-24T03:45:47.860Z,76.38
2022-08-24T03:46:47.817Z,70.90
2022-08-24T03:47:47.793Z,71.54
2022-08-24T03:48:47.824Z,73.80
2022-08-24T03:49:47.769Z,72.51
2022-08-24T03:50:47.759Z,74.28
2022-08-24T03:51:47.767Z,73.15
2022-08-24T03:52:47.740Z,73.32
2022-08-24T03:53:47.757Z,73.96
2022-08-24T03:54:47.720Z,72.03
2022-08-24T03:55:47.714Z,73.96
2022-08-24T03:56:47.731Z,73.48
2022-08-24T03:57:47.693Z,72.99
2022-08-24T03:58:47.691Z,72.83
2022-08-24T03:59:47.700Z,72.19
2022-08-24T04:00:47.708Z,75.57
2022-08-24T04:01:47.692Z,72.99
2022-08-24T04:02:47.732Z,74.44
2022-08-24T04:03:47.634Z,74.77
2022-08-24T04:04:47.623Z,73.64
2022-08-24T04:05:47.654Z,71.87
2022-08-24T04:06:47.611Z,73.15
2022-08-24T04:07:47.610Z,73.96
2022-08-24T04:08:47.588Z,72.99
2022-08-24T04:09:47.583Z,73.64
2022-08-24T04:10:47.567Z,72.99
2022-08-24T04:11:47.756Z,74.77
2022-08-24T04:12:47.564Z,73.32
2022-08-24T04:13:47.543Z,72.19
2022-08-24T04:14:47.529Z,74.28
2022-08-24T04:15:47.524Z,73.15
2022-08-24T04:16:48.246Z,74.60
2022-08-24T04:17:48.541Z,74.28
2022-08-24T04:18:47.494Z,73.80
2022-08-24T04:19:47.478Z,73.48
2022-08-24T04:20:48.474Z,74.12
2022-08-24T04:21:47.462Z,72.83
2022-08-24T04:22:47.482Z,73.15
2022-08-24T04:23:48.053Z,72.03
2022-08-24T04:24:47.437Z,74.77
2022-08-24T04:25:47.426Z,74.60
2022-08-24T04:26:47.421Z,72.19
2022-08-24T04:27:47.404Z,75.41
2022-08-24T04:28:47.410Z,75.57
2022-08-24T04:29:47.390Z,74.77
2022-08-24T04:30:47.382Z,74.77
2022-08-24T04:31:47.428Z,74.28
2022-08-24T04:32:47.364Z,74.28
2022-08-24T04:33:47.377Z,75.25
2022-08-24T04:34:48.346Z,73.80
2022-08-24T04:35:47.333Z,74.93
2022-08-24T04:36:47.325Z,75.57
2022-08-24T04:37:47.314Z,72.67
2022-08-24T04:38:47.323Z,75.41
2022-08-24T04:39:47.342Z,73.64
2022-08-24T04:40:47.284Z,74.12
2022-08-24T04:41:47.275Z,73.48
2022-08-24T04:42:47.270Z,74.93
2022-08-24T04:43:47.277Z,74.44
2022-08-24T04:44:47.252Z,74.60
2022-08-24T04:45:47.295Z,76.38
2022-08-24T04:46:47.243Z,71.22
2022-08-24T04:47:47.227Z,74.28
2022-08-24T04:48:47.258Z,72.35
2022-08-24T04:49:47.202Z,74.93
2022-08-24T04:50:47.199Z,72.67
2022-08-24T04:51:47.194Z,74.44
2022-08-24T04:52:47.908Z,75.25
2022-08-24T04:53:47.195Z,73.32
2022-08-24T04:54:47.164Z,74.28
2022-08-24T04:55:47.145Z,74.60
2022-08-24T04:56:47.136Z,73.80
2022-08-24T04:57:47.147Z,74.60
2022-08-24T04:58:47.117Z,73.15
2022-08-24T04:59:47.127Z,75.25
2022-08-24T05:00:47.148Z,71.06
2022-08-24T05:01:47.118Z,74.44
2022-08-24T05:02:47.106Z,72.99
2022-08-24T05:03:47.078Z,74.60
2022-08-24T05:04:47.099Z,73.48
2022-08-24T05:05:47.052Z,73.64
2022-08-24T05:06:47.044Z,73.64
2022-08-24T05:07:48.049Z,76.38
2022-08-24T05:08:47.047Z,73.80
2022-08-24T05:09:47.062Z,73.48
2022-08-24T05:10:47.008Z,73.96
2022-08-24T05:11:49.769Z,75.57
2022-08-24T05:12:46.992Z,73.80
2022-08-24T05:13:46.979Z,74.93
2022-08-24T05:14:46.969Z,72.83
2022-08-24T05:15:46.999Z,74.28
2022-08-24T05:16:52.652Z,73.96
2022-08-24T05:17:51.191Z,74.28
2022-08-24T05:18:46.933Z,69.77
2022-08-24T05:19:46.926Z,72.99
2022-08-24T05:20:46.951Z,73.32
2022-08-24T05:21:46.903Z,72.35
2022-08-24T05:22:46.895Z,71.87
2022-08-24T05:23:46.887Z,73.15
2022-08-24T05:24:46.871Z,72.99
2022-08-24T05:25:46.865Z,72.19
2022-08-24T05:26:46.869Z,72.99
2022-08-24T05:27:46.841Z,74.44
2022-08-24T05:28:46.834Z,74.12
2022-08-24T05:29:46.823Z,72.03
2022-08-24T05:30:46.820Z,72.99
2022-08-24T05:31:46.849Z,72.67
2022-08-24T05:32:46.795Z,72.99
2022-08-24T05:33:46.789Z,72.19
2022-08-24T05:34:46.781Z,73.15
2022-08-24T05:35:46.767Z,72.19
2022-08-24T05:36:46.788Z,73.15
2022-08-24T05:37:46.748Z,73.96
2022-08-24T05:38:46.738Z,73.15
2022-08-24T05:39:46.773Z,73.64
2022-08-24T05:40:46.720Z,74.44
2022-08-24T05:41:46.785Z,74.12
2022-08-24T05:42:46.700Z,74.12
2022-08-24T05:43:46.690Z,73.80
2022-08-24T05:44:46.680Z,72.51
2022-08-24T05:45:46.667Z,71.87
2022-08-24T05:46:46.727Z,73.48
2022-08-24T05:47:46.701Z,72.99
2022-08-24T05:48:52.619Z,73.15
2022-08-24T05:49:47.633Z,73.64
2022-08-24T05:50:46.624Z,71.22
2022-08-24T05:51:46.613Z,72.83
2022-08-24T05:52:46.647Z,75.41
2022-08-24T05:53:46.593Z,73.64
2022-08-24T05:54:46.585Z,73.80
2022-08-24T05:55:46.576Z,72.83
2022-08-24T05:56:46.567Z,72.19
2022-08-24T05:57:46.560Z,72.35
2022-08-24T05:58:46.573Z,71.06
2022-08-24T05:59:46.538Z,72.03
2022-08-24T06:00:46.530Z,72.51
2022-08-24T06:01:46.674Z,73.15
2022-08-24T06:02:46.645Z,73.80
2022-08-24T06:03:46.517Z,72.99
2022-08-24T06:04:46.494Z,73.80
2022-08-24T06:05:46.487Z,70.09
2022-08-24T06:06:48.612Z,70.58
2022-08-24T06:07:46.462Z,73.32
2022-08-24T06:08:46.474Z,74.12
2022-08-24T06:09:46.441Z,71.54
2022-08-24T06:10:46.432Z,73.32
2022-08-24T06:11:46.457Z,72.19
2022-08-24T06:12:46.417Z,73.15
2022-08-24T06:13:46.439Z,70.58
2022-08-24T06:14:47.402Z,71.70
2022-08-24T06:16:04.884Z,70.74
2022-08-24T06:16:48.604Z,71.87
2022-08-24T06:17:46.452Z,70.90
2022-08-24T06:18:46.392Z,70.90
2022-08-24T06:19:46.351Z,73.48
2022-08-24T06:20:46.337Z,70.25
2022-08-24T06:21:46.329Z,71.06
2022-08-24T06:22:46.323Z,70.58
2022-08-24T06:23:46.312Z,71.70
2022-08-24T06:24:46.332Z,68.48
2022-08-24T06:25:46.297Z,69.61
2022-08-24T06:26:49.921Z,69.13
2022-08-24T06:27:46.272Z,68.80
2022-08-24T06:28:46.265Z,69.45
2022-08-24T06:29:46.296Z,70.90
2022-08-24T06:30:46.247Z,68.00
2022-08-24T06:31:46.487Z,68.96
2022-08-24T06:32:47.246Z,71.06
2022-08-24T06:33:46.215Z,71.38
2022-08-24T06:34:46.205Z,70.58
2022-08-24T06:35:47.124Z,66.39
2022-08-24T06:36:47.189Z,69.13
2022-08-24T06:37:46.165Z,68.00
2022-08-24T06:38:47.167Z,68.80
2022-08-24T06:39:46.169Z,68.64
2022-08-24T06:40:46.179Z,67.35
2022-08-24T06:41:46.163Z,67.68
2022-08-24T06:42:46.130Z,70.25
2022-08-24T06:43:46.116Z,67.84
2022-08-24T06:44:46.107Z,66.87
2022-08-24T06:45:46.129Z,68.48
2022-08-24T06:46:46.129Z,69.13
2022-08-24T06:47:46.083Z,69.13
2022-08-24T06:48:46.074Z,69.61
2022-08-24T06:49:46.065Z,66.55
2022-08-24T06:50:46.056Z,68.80
2022-08-24T06:51:50.087Z,71.22
2022-08-24T06:52:47.039Z,71.38
2022-08-24T06:53:46.029Z,71.22
2022-08-24T06:54:46.019Z,71.38
2022-08-24T06:55:46.005Z,69.45
2022-08-24T06:56:46.013Z,69.29
2022-08-24T06:57:49.192Z,69.61
2022-08-24T06:58:47.981Z,68.00
2022-08-24T06:59:45.974Z,67.19
2022-08-24T07:00:45.961Z,67.68
2022-08-24T07:01:46.037Z,67.68
2022-08-24T07:02:46.008Z,69.13
2022-08-24T07:03:45.933Z,68.64
2022-08-24T07:04:45.925Z,69.61
2022-08-24T07:05:45.935Z,69.93
2022-08-24T07:06:45.919Z,68.64
2022-08-24T07:07:45.890Z,69.13
2022-08-24T07:08:45.889Z,67.68
2022-08-24T07:09:45.875Z,69.61
2022-08-24T07:10:45.864Z,68.00
2022-08-24T07:11:45.895Z,68.16
2022-08-24T07:12:46.885Z,68.48
2022-08-24T07:13:45.846Z,67.84
2022-08-24T07:14:45.830Z,68.64
2022-08-24T07:15:45.842Z,69.61
2022-08-24T07:16:45.807Z,68.80
2022-08-24T07:17:45.826Z,69.61
2022-08-24T07:18:49.299Z,67.68
2022-08-24T07:19:46.773Z,69.13
2022-08-24T07:20:46.773Z,69.45
2022-08-24T07:21:45.759Z,66.23
2022-08-24T07:22:45.783Z,67.84
2022-08-24T07:23:45.739Z,67.68
2022-08-24T07:24:45.731Z,67.84
2022-08-24T07:25:49.752Z,67.03
2022-08-24T07:26:47.709Z,68.16
2022-08-24T07:27:45.703Z,69.29
2022-08-24T07:28:45.709Z,68.80
2022-08-24T07:29:52.718Z,72.99
2022-08-24T07:30:47.735Z,66.55
2022-08-24T07:31:45.712Z,68.00
2022-08-24T07:32:45.651Z,65.58
2022-08-24T07:33:45.661Z,69.61
2022-08-24T07:34:45.634Z,68.16
2022-08-24T07:35:45.622Z,69.13
2022-08-24T07:36:45.617Z,71.38
2022-08-24T07:37:45.604Z,69.29
2022-08-24T07:38:45.624Z,67.35
2022-08-24T07:39:45.592Z,68.48
2022-08-24T07:41:09.329Z,66.06
2022-08-24T07:42:11.077Z,67.03
2022-08-24T07:42:47.556Z,68.00
2022-08-24T07:43:45.547Z,69.29
2022-08-24T07:44:45.569Z,68.64
2022-08-24T07:45:45.543Z,68.80
2022-08-24T07:46:45.599Z,69.77
2022-08-24T07:47:54.628Z,68.48
2022-08-24T07:48:48.600Z,69.13
2022-08-24T07:49:46.598Z,65.26
2022-08-24T07:50:45.486Z,68.80
2022-08-24T07:51:47.150Z,68.64
2022-08-24T07:52:45.471Z,69.45
2022-08-24T07:53:53.579Z,69.29
2022-08-24T07:54:47.511Z,65.26
2022-08-24T07:55:45.941Z,68.32
2022-08-24T07:56:45.431Z,66.71
2022-08-24T07:57:45.419Z,68.48
2022-08-24T07:58:45.411Z,67.35
2022-08-24T07:59:45.423Z,70.74
2022-08-24T08:00:45.412Z,67.51
2022-08-24T08:01:45.422Z,69.61
2022-08-24T08:02:45.431Z,70.58
2022-08-24T08:03:45.376Z,69.93
2022-08-24T08:04:45.357Z,68.96
2022-08-24T08:05:45.361Z,67.35
2022-08-24T08:07:17.276Z,68.16
2022-08-24T08:07:47.677Z,66.06
2022-08-24T08:08:45.312Z,67.51
2022-08-24T08:09:45.383Z,65.74
2022-08-24T08:10:45.352Z,66.87
2022-08-24T08:11:45.289Z,66.39
2022-08-24T08:12:45.284Z,68.64
2022-08-24T08:13:45.279Z,68.16
2022-08-24T08:14:45.268Z,66.55
2022-08-24T08:15:45.364Z,68.80
2022-08-24T08:16:45.240Z,68.64
2022-08-24T08:17:45.232Z,67.35
2022-08-24T08:18:45.615Z,69.45
2022-08-24T08:19:45.221Z,68.64
2022-08-24T08:20:45.206Z,67.03
2022-08-24T08:21:45.211Z,68.64
2022-08-24T08:22:45.184Z,68.00
2022-08-24T08:23:45.202Z,69.13
2022-08-24T08:24:45.171Z,68.80
2022-08-24T08:25:47.378Z,67.84
2022-08-24T08:26:46.168Z,66.39
2022-08-24T08:27:45.164Z,67.51
2022-08-24T08:28:45.113Z,67.51
2022-08-24T08:29:46.118Z,69.93
2022-08-24T08:30:45.126Z,69.45
2022-08-24T08:31:45.105Z,67.84
2022-08-24T08:32:45.086Z,68.48
2022-08-24T08:33:45.082Z,68.32
2022-08-24T08:34:45.067Z,68.80
2022-08-24T08:35:45.070Z,67.68
2022-08-24T08:36:45.077Z,67.03
2022-08-24T08:37:45.179Z,67.68
2022-08-24T08:38:45.060Z,66.55
2022-08-24T08:39:45.166Z,67.03
2022-08-24T08:40:45.007Z,65.74
2022-08-24T08:41:45.021Z,64.94
2022-08-24T08:42:44.986Z,67.51
2022-08-24T08:43:44.976Z,66.06
2022-08-24T08:44:44.969Z,66.55
2022-08-24T08:45:45.014Z,66.87
2022-08-24T08:46:44.947Z,68.16
2022-08-24T08:47:45.067Z,69.13
2022-08-24T08:48:44.925Z,65.58
2022-08-24T08:49:44.954Z,67.19
2022-08-24T08:50:44.911Z,70.74
2022-08-24T08:51:44.900Z,68.48
2022-08-24T08:52:44.907Z,69.93
2022-08-24T08:53:44.884Z,69.45
2022-08-24T08:54:44.879Z,67.19
2022-08-24T08:55:44.860Z,65.58
2022-08-24T08:56:44.851Z,66.87
2022-08-24T08:57:44.855Z,68.64
2022-08-24T08:58:46.751Z,67.51
2022-08-24T08:59:45.844Z,68.64
2022-08-24T09:00:44.811Z,66.39
2022-08-24T09:01:47.086Z,65.74
2022-08-24T09:02:44.939Z,69.29
2022-08-24T09:03:44.783Z,66.06
2022-08-24T09:04:44.849Z,65.90
2022-08-24T09:05:44.811Z,66.71
2022-08-24T09:06:44.753Z,68.64
2022-08-24T09:07:44.900Z,65.90
2022-08-24T09:08:44.734Z,68.32
2022-08-24T09:09:45.729Z,68.32
2022-08-24T09:10:44.713Z,66.55
2022-08-24T09:11:44.703Z,68.80
2022-08-24T09:12:44.801Z,70.74
2022-08-24T09:13:44.715Z,67.03
2022-08-24T09:14:44.674Z,69.45
2022-08-24T09:15:44.666Z,71.22
2022-08-24T09:16:44.691Z,70.58
2022-08-24T09:17:44.650Z,68.16
2022-08-24T09:18:44.666Z,66.87
2022-08-24T09:19:44.629Z,68.00
2022-08-24T09:20:44.616Z,67.84
2022-08-24T09:21:44.617Z,69.13
2022-08-24T09:22:44.599Z,67.84
2022-08-24T09:23:44.592Z,66.55
2022-08-24T09:24:44.605Z,66.87
2022-08-24T09:25:44.573Z,66.55
2022-08-24T09:26:44.566Z,66.06
2022-08-24T09:27:44.563Z,67.03
2022-08-24T09:28:44.536Z,65.10
2022-08-24T09:29:44.934Z,66.06
2022-08-24T09:30:44.903Z,66.23
2022-08-24T09:31:44.520Z,69.29
2022-08-24T09:32:44.507Z,67.35
2022-08-24T09:33:44.500Z,68.00
2022-08-24T09:34:44.509Z,66.06
2022-08-24T09:35:44.482Z,67.51
2022-08-24T09:36:44.468Z,67.84
2022-08-24T09:37:44.459Z,69.13
2022-08-24T09:38:44.454Z,65.26
2022-08-24T09:39:44.550Z,66.23
2022-08-24T09:40:44.429Z,67.84
2022-08-24T09:41:44.423Z,66.06
2022-08-24T09:42:44.440Z,65.74
2022-08-24T09:43:45.416Z,65.90
2022-08-24T09:44:44.463Z,67.68
2022-08-24T09:45:44.429Z,65.74
2022-08-24T09:46:44.373Z,65.42
2022-08-24T09:47:44.358Z,67.68
2022-08-24T09:48:44.348Z,70.90
2022-08-24T09:49:45.382Z,66.87
2022-08-24T09:50:44.337Z,67.03
2022-08-24T09:51:44.325Z,67.68
2022-08-24T09:52:44.318Z,66.39
2022-08-24T09:53:44.307Z,67.03
2022-08-24T09:54:44.298Z,66.55
2022-08-24T09:55:44.320Z,65.42
2022-08-24T09:56:44.290Z,68.64
2022-08-24T09:57:59.961Z,65.10
2022-08-24T09:58:46.282Z,66.87
2022-08-24T09:59:44.254Z,68.16
2022-08-24T10:00:44.309Z,66.06
2022-08-24T10:01:44.232Z,67.03
2022-08-24T10:02:44.332Z,65.42
2022-08-24T10:03:44.217Z,68.32
2022-08-24T10:04:44.311Z,67.84
2022-08-24T10:05:44.333Z,68.48
2022-08-24T10:06:44.232Z,66.71
2022-08-24T10:07:44.173Z,64.94
2022-08-24T10:08:44.166Z,65.90
2022-08-24T10:09:44.156Z,65.74
2022-08-24T10:10:44.148Z,63.65
2022-08-24T10:11:44.169Z,65.90
2022-08-24T10:12:44.129Z,65.74
2022-08-24T10:13:44.131Z,68.48
2022-08-24T10:14:44.121Z,67.19
2022-08-24T10:15:44.108Z,64.13
2022-08-24T10:16:44.188Z,67.35
2022-08-24T10:17:44.141Z,68.96
2022-08-24T10:18:44.074Z,66.87
2022-08-24T10:19:44.077Z,67.03
2022-08-24T10:20:44.056Z,65.90
2022-08-24T10:21:44.046Z,68.48
2022-08-24T10:22:44.063Z,65.74
2022-08-24T10:23:44.029Z,68.32
2022-08-24T10:24:44.026Z,66.71
2022-08-24T10:25:44.008Z,66.23
2022-08-24T10:26:44.034Z,68.32
2022-08-24T10:27:43.989Z,66.71
2022-08-24T10:28:44.010Z,66.87
2022-08-24T10:29:43.971Z,66.87
2022-08-24T10:30:43.959Z,68.16
2022-08-24T10:31:43.989Z,68.32
2022-08-24T10:32:43.944Z,71.87
2022-08-24T10:33:43.990Z,71.06
2022-08-24T10:34:43.943Z,72.67
2022-08-24T10:35:43.919Z,72.19
2022-08-24T10:36:43.905Z,72.99
2022-08-24T10:37:43.901Z,67.84
2022-08-24T10:38:43.891Z,68.48
2022-08-24T10:39:43.979Z,68.80
2022-08-24T10:40:43.923Z,68.80
2022-08-24T10:41:43.865Z,67.03
2022-08-24T10:42:43.879Z,71.38
2022-08-24T10:43:43.846Z,70.90
2022-08-24T10:44:43.875Z,70.58
2022-08-24T10:45:43.858Z,69.45
2022-08-24T10:46:43.821Z,73.15
2022-08-24T10:47:43.812Z,71.38
2022-08-24T10:48:43.796Z,70.90
2022-08-24T10:49:43.834Z,73.80
2022-08-24T10:50:43.780Z,68.80
2022-08-24T10:51:43.773Z,71.54
2022-08-24T10:52:43.758Z,68.64
2022-08-24T10:53:43.751Z,70.74
2022-08-24T10:54:43.750Z,71.70
2022-08-24T10:55:43.763Z,70.90
2022-08-24T10:56:43.719Z,71.22
2022-08-24T10:57:43.712Z,69.61
2022-08-24T10:58:43.706Z,70.09
2022-08-24T10:59:43.698Z,68.16
2022-08-24T11:00:43.790Z,67.19
2022-08-24T11:01:43.725Z,68.16
2022-08-24T11:02:43.663Z,66.39
2022-08-24T11:03:43.650Z,63.49
2022-08-24T11:04:43.646Z,67.68
2022-08-24T11:05:43.637Z,69.93
2022-08-24T11:06:43.643Z,70.42
2022-08-24T11:07:43.619Z,70.58
2022-08-24T11:08:43.609Z,69.77
2022-08-24T11:09:43.603Z,71.22
2022-08-24T11:10:43.588Z,70.74
2022-08-24T11:11:43.603Z,70.58
2022-08-24T11:12:43.577Z,70.09
2022-08-24T11:13:43.570Z,70.90
2022-08-24T11:14:43.625Z,69.77
2022-08-24T11:15:43.543Z,69.13
2022-08-24T11:16:43.613Z,70.09
2022-08-24T11:17:43.519Z,69.45
2022-08-24T11:18:44.517Z,69.93
2022-08-24T11:19:43.514Z,71.06
2022-08-24T11:20:43.502Z,73.15
2022-08-24T11:21:43.525Z,71.87
2022-08-24T11:22:43.484Z,72.35
2022-08-24T11:23:43.474Z,71.06
2022-08-24T11:24:43.490Z,69.13
2022-08-24T11:25:43.455Z,67.84
2022-08-24T11:26:43.444Z,67.35
2022-08-24T11:27:43.451Z,63.81
2022-08-24T11:28:43.425Z,68.64
2022-08-24T11:29:44.423Z,72.03
2022-08-24T11:30:43.406Z,72.03
2022-08-24T11:31:43.447Z,71.38
2022-08-24T11:32:43.406Z,70.25
2022-08-24T11:33:43.383Z,70.58
2022-08-24T11:34:43.369Z,66.87
2022-08-24T11:35:43.364Z,65.58
2022-08-24T11:36:43.416Z,66.87
2022-08-24T11:37:43.373Z,66.55
2022-08-24T11:38:45.810Z,63.81
2022-08-24T11:39:43.381Z,68.64
2022-08-24T11:40:43.412Z,67.84
2022-08-24T11:41:43.304Z,69.13
2022-08-24T11:42:43.340Z,71.70
2022-08-24T11:43:43.279Z,68.16
2022-08-24T11:44:44.280Z,69.77
2022-08-24T11:45:43.270Z,68.48
2022-08-24T11:46:43.328Z,71.22
2022-08-24T11:47:43.255Z,67.35
2022-08-24T11:48:43.747Z,65.90
2022-08-24T11:49:43.235Z,65.90
2022-08-24T11:50:43.225Z,68.16
2022-08-24T11:51:43.214Z,67.68
2022-08-24T11:52:43.211Z,67.68
2022-08-24T11:54:43.191Z,67.35
2022-08-24T11:55:46.843Z,65.90
2022-08-24T11:56:43.170Z,67.68
2022-08-24T11:57:47.671Z,63.16
2022-08-24T11:58:44.183Z,66.23
2022-08-24T11:59:43.146Z,64.78
2022-08-24T12:00:43.142Z,63.81
2022-08-24T12:01:45.118Z,66.39
2022-08-24T12:02:43.250Z,67.19
2022-08-24T12:03:43.111Z,69.93
2022-08-24T12:04:43.118Z,69.13
2022-08-24T12:05:43.090Z,70.25
2022-08-24T12:06:43.086Z,71.06
2022-08-24T12:07:43.074Z,67.68
2022-08-24T12:08:44.072Z,64.78
2022-08-24T12:09:43.070Z,66.06
2022-08-24T12:10:43.048Z,66.71
2022-08-24T12:11:43.047Z,68.64
2022-08-24T12:12:43.026Z,66.06
2022-08-24T12:13:43.025Z,67.19
2022-08-24T12:14:43.026Z,65.58
2022-08-24T12:15:43.001Z,67.84
2022-08-24T12:16:43.068Z,68.16
2022-08-24T12:17:42.979Z,66.87
2022-08-24T12:18:42.971Z,70.90
2022-08-24T12:19:42.983Z,64.78
2022-08-24T12:20:42.956Z,61.87
2022-08-24T12:21:43.948Z,63.81
2022-08-24T12:22:42.944Z,65.42
2022-08-24T12:23:42.932Z,66.87
2022-08-24T12:24:42.960Z,62.52
2022-08-24T12:25:42.911Z,67.68
2022-08-24T12:26:42.913Z,69.45
2022-08-24T12:27:42.904Z,69.45
2022-08-24T12:28:42.897Z,70.58
2022-08-24T12:29:42.924Z,67.84
2022-08-24T12:30:42.861Z,67.51
2022-08-24T12:31:42.990Z,63.49
2022-08-24T12:32:42.885Z,64.94
2022-08-24T12:33:42.836Z,65.26
2022-08-24T12:34:42.833Z,68.96
2022-08-24T12:35:42.833Z,69.45
2022-08-24T12:36:42.809Z,69.45
2022-08-24T12:37:42.831Z,68.48
2022-08-24T12:38:42.820Z,69.93
2022-08-24T12:39:42.885Z,69.13
2022-08-24T12:40:42.789Z,68.64
2022-08-24T12:41:42.762Z,70.90
2022-08-24T12:42:42.752Z,67.68
2022-08-24T12:43:42.743Z,68.64
2022-08-24T12:44:42.728Z,68.96
2022-08-24T12:45:42.766Z,68.64
2022-08-24T12:46:42.780Z,68.00
2022-08-24T12:47:42.706Z,66.55
2022-08-24T12:48:42.691Z,68.64
2022-08-24T12:49:42.688Z,67.68
2022-08-24T12:50:42.732Z,68.16
2022-08-24T12:51:42.665Z,69.93
2022-08-24T12:52:42.663Z,68.32
2022-08-24T12:53:42.648Z,68.32